< Typhoon 201703 2017 Season Typhoon 201705 >
Typhoon 201704 (TALAS)
General InformationTrack Information on Google MapsDetailed Wind InformationForecast History on Google MapsAccess Analytics MapList of All Images || NewsDisaster Info.WeblogTrackbackTyphoon FrontTwiphoonTyphoon Now!Typhoon ImaginationDisaster Info. XMLResourceGoogle EarthGE AnimationAtom FeedGeoJSON
Detalied Best Track (Time Zone = UTC)
Year Month Day Hour Lat. Long. Pressure (hPa) Wind (kt) Class Image Chart
2017 7 14 12 16.1 112.7 1002 30 2 Image Chart
2017 7 14 15 16.3 112.7 1002 30 2 Image Chart
2017 7 14 18 16.6 112.4 1002 30 2 Image Chart
2017 7 14 21 16.7 112.0 1000 30 2 Image Chart
2017 7 15 00 16.7 112.0 1000 30 2 Image Chart
2017 7 15 03 16.3 111.8 1000 30 2 Image Chart
2017 7 15 06 16.8 111.8 998 35 3 Image Chart
2017 7 15 09 17.0 111.7 998 35 3 Image Chart
2017 7 15 12 17.0 111.1 996 40 3 Image Chart
2017 7 15 15 17.2 110.5 996 40 3 Image Chart
2017 7 15 18 17.7 109.9 996 40 3 Image Chart
2017 7 15 21 17.7 109.6 994 40 3 Image Chart
2017 7 16 00 17.7 109.4 990 45 3 Image Chart
2017 7 16 03 17.9 108.8 990 45 3 Image Chart
2017 7 16 06 18.2 108.3 990 45 3 Image Chart
2017 7 16 09 18.7 107.7 990 50 4 Image Chart
2017 7 16 12 18.5 107.2 990 50 4 Image Chart
2017 7 16 15 18.3 106.6 990 50 4 Image Chart
2017 7 16 18 18.4 105.9 990 45 3 Image Chart
2017 7 16 21 18.7 105.0 990 45 3 Image Chart
2017 7 17 00 18.9 104.1 992 40 3 Image Chart
2017 7 17 03 18.9 103.0 992 40 3 Image Chart
2017 7 17 06 19.0 102.3 994 35 3 Image Chart
2017 7 17 09 19.0 102.0 996 0 2 Image Chart
Japan Meteorological Agency Best Track Data | Correction Date : 2017-07-17
< Typhoon 201703 2017 Season Typhoon 201705 >

Help